If you wish to contribute or participate in the discussions about articles you are invited to join SKYbrary as a registered user

 Actions

Kobe Airport

From SKYbrary Wiki

RJBE
Airport
ICAO: RJBE – IATA: UKB
Summary
Name Kobe Airport
Region Asia and Pacific
Territory Japan JP.gif
Location Chuo-ku, Kansai
Serving Kobe
Elevation 6.706 m
22 ft6.706 m
Coordinates 34° 38' 1.75" N, 135° 13' 24.51" E
Runways
Designator Length Width Surface ROPS
9/27 2500 m8,202.1 ft
61 m200.131 ft
ASP /


METAR
Observation RJBE 160100Z 11003KT CAVOK 13/03 Q1021
Station KOBE
Date/Time 16 April 2019 01:00:00
Wind direction 110°
Wind speed 03 kts
Lowest cloud amount clouds and visibility OK
Temperature 13°C
Dew point 3°C
Humidity 50%
QNH 1021 hPa
Weather condition n/a

Kobe Airport is an airport on an artificial island just off the coast of Kobe, 8 km4.32 nm
8,000 m
26,246.719 ft
south of Sannomiya Station, Japan. It primarily handles domestic flights, but can also accommodate international charter flights.

Climatology

Humid subtropical climate (Köppen climate classification Cfa).

Maps

Terrain

Loading map...

Airport Layout

Loading map...


Accidents & Serious Incidents at or in vicinity of RJBE

None on SKYbrary